DAAG/ALG METAR and TAF weather

Enter ICAO airport designator
Station Type Date Time Source
DAAG METAR 2018/01/22 11:30 UTC NOAA

DAAG 221130Z VRB02KT CAVOK 20/10 Q1027


Station Type Date Time Source
DAAG Decoded METAR 2018/01/22 11:30 UTC NOAA

Dar-El-Beida, Algeria (DAAG) 36-43N 003-15E 25M
Jan 22, 2018 - 06:30 AM EST / 2018.01.22 1130 UTC
Wind: Variable at 2 MPH (2 KT):0
Visibility: greater than 7 mile(s):0
Temperature: 68 F (20 C)
Dew Point: 50 F (10 C)
Relative Humidity: 52%
Pressure (altimeter): 30.33 in. Hg (1027 hPa)
ob: DAAG 221130Z VRB02KT CAVOK 20/10 Q1027
cycle: 11

Station Type Date Time Source
DAAG TAF 2018/01/22 12:46 UTC NOAA

TAF DAAG 221100Z 2212/2312 22006KT CAVOK
TEMPO 2212/2218 30010KT


Example: see airport list